Time;durP1;ratioP1;P1;durP2;ratioP2;P2;SDS_P1;SDS_P2;PMS_P1;PMS_P2;Temp;Humidity;BMP_temperature;BMP_pressure;BME280_temperature;BME280_humidity;BME280_pressure;Samples;Min_cycle;Max_cycle;Signal;HPM_P1;HPM_P2
2024/03/07 00:00:18;;;;;;;21.60;12.30;;;4.20;99.90;;;;;;4927205;28;20277;-52
2024/03/07 00:02:47;;;;;;;26.77;14.00;;;4.30;99.90;;;;;;4962122;28;20921;-48
2024/03/07 00:05:14;;;;;;;21.50;11.90;;;4.30;99.90;;;;;;4962327;28;20711;-51
2024/03/07 00:07:41;;;;;;;22.87;12.07;;;4.30;99.90;;;;;;4954008;28;20284;-50
2024/03/07 00:10:09;;;;;;;20.20;12.57;;;4.40;99.90;;;;;;4957699;28;20672;-51
2024/03/07 00:12:40;;;;;;;28.73;12.87;;;4.40;99.90;;;;;;4958823;28;20999;-51
2024/03/07 00:15:08;;;;;;;20.87;12.57;;;4.40;99.90;;;;;;4961792;28;20264;-47
2024/03/07 00:17:35;;;;;;;17.77;11.30;;;4.40;99.90;;;;;;4932313;28;20280;-49
2024/03/07 00:20:04;;;;;;;21.60;12.57;;;4.40;99.90;;;;;;4961285;28;20218;-48
2024/03/07 00:22:31;;;;;;;21.00;11.93;;;4.50;99.90;;;;;;4959618;28;20220;-50
2024/03/07 00:24:59;;;;;;;17.33;10.83;;;4.40;99.90;;;;;;4958039;28;20209;-48
2024/03/07 00:27:26;;;;;;;24.13;11.77;;;4.50;99.90;;;;;;4950035;28;20217;-47
2024/03/07 00:29:54;;;;;;;19.00;11.37;;;4.50;99.90;;;;;;4959121;28;20190;-54
2024/03/07 00:32:22;;;;;;;22.23;11.77;;;4.50;99.90;;;;;;4935052;28;20249;-48
2024/03/07 00:34:49;;;;;;;16.30;10.93;;;4.50;99.90;;;;;;4959843;28;20202;-54
2024/03/07 00:37:16;;;;;;;19.93;12.03;;;4.50;99.90;;;;;;4963571;28;20206;-48
2024/03/07 00:39:43;;;;;;;18.90;11.47;;;4.50;99.90;;;;;;4958930;28;20198;-54
2024/03/07 00:42:10;;;;;;;20.83;12.13;;;4.50;99.90;;;;;;4960097;28;20244;-49
2024/03/07 00:44:37;;;;;;;18.80;12.03;;;4.60;99.90;;;;;;4961941;28;20200;-51
2024/03/07 00:47:05;;;;;;;28.20;14.20;;;4.60;99.90;;;;;;4931257;28;21923;-47
2024/03/07 00:49:32;;;;;;;27.60;12.50;;;4.60;99.90;;;;;;4963383;28;20233;-51
2024/03/07 00:51:59;;;;;;;21.67;12.27;;;4.60;99.90;;;;;;4960457;28;20214;-51
2024/03/07 00:54:26;;;;;;;22.40;12.40;;;4.60;99.90;;;;;;4963317;28;20277;-49
2024/03/07 00:56:53;;;;;;;26.17;12.33;;;4.60;99.90;;;;;;4954656;28;20194;-50
2024/03/07 00:59:20;;;;;;;21.93;12.77;;;4.60;99.90;;;;;;4962892;28;20221;-52
2024/03/07 01:01:49;;;;;;;21.67;12.30;;;4.60;99.90;;;;;;4960422;28;20234;-53
2024/03/07 01:04:17;;;;;;;23.60;12.07;;;4.60;99.90;;;;;;4931889;28;20210;-49
2024/03/07 01:06:44;;;;;;;23.07;12.70;;;4.60;99.90;;;;;;4957743;28;20202;-54
2024/03/07 01:09:14;;;;;;;25.07;12.67;;;4.60;99.90;;;;;;4966295;28;20206;-51
2024/03/07 01:11:41;;;;;;;27.27;12.67;;;4.60;99.90;;;;;;4958958;28;20221;-55
2024/03/07 01:14:09;;;;;;;23.83;13.43;;;4.60;99.90;;;;;;4965486;28;20198;-51
2024/03/07 01:16:36;;;;;;;23.43;12.93;;;4.70;99.90;;;;;;4964664;28;20260;-53
2024/03/07 01:19:05;;;;;;;24.87;13.70;;;4.60;99.90;;;;;;4932111;28;20230;-49
2024/03/07 01:21:33;;;;;;;26.70;13.83;;;4.70;99.90;;;;;;4964760;28;20308;-52
2024/03/07 01:24:01;;;;;;;24.90;14.53;;;4.70;99.90;;;;;;4963755;28;20888;-51
2024/03/07 01:26:29;;;;;;;28.67;14.70;;;4.60;99.90;;;;;;4960545;28;20210;-51
2024/03/07 01:28:56;;;;;;;28.07;14.83;;;4.60;99.90;;;;;;4963198;28;20867;-51
2024/03/07 01:31:23;;;;;;;29.73;15.07;;;4.60;99.90;;;;;;4965990;28;20827;-47
2024/03/07 01:33:51;;;;;;;24.33;14.20;;;4.60;99.90;;;;;;4933931;28;20226;-54
2024/03/07 01:36:18;;;;;;;31.03;14.43;;;4.60;99.90;;;;;;4966324;28;20245;-52
2024/03/07 01:38:46;;;;;;;23.60;15.03;;;4.70;99.90;;;;;;4963480;28;20198;-52
2024/03/07 01:41:14;;;;;;;28.20;15.13;;;4.60;99.90;;;;;;4966092;28;20264;-51
2024/03/07 01:43:41;;;;;;;24.93;15.50;;;4.70;99.90;;;;;;4958565;28;20619;-50
2024/03/07 01:46:08;;;;;;;23.80;14.20;;;4.70;99.90;;;;;;4964641;28;20205;-47
2024/03/07 01:48:35;;;;;;;22.27;12.90;;;4.70;99.90;;;;;;4958176;28;20217;-53
2024/03/07 01:51:03;;;;;;;23.67;13.17;;;4.70;99.90;;;;;;4934726;28;20874;-53
2024/03/07 01:53:31;;;;;;;23.13;12.43;;;4.70;99.90;;;;;;4959467;28;20202;-48
2024/03/07 01:56:00;;;;;;;22.27;12.07;;;4.70;99.90;;;;;;4962914;28;20284;-48
2024/03/07 01:58:27;;;;;;;21.00;11.27;;;4.70;99.90;;;;;;4959022;28;20206;-51
2024/03/07 02:00:54;;;;;;;22.87;12.80;;;4.60;99.90;;;;;;4962238;28;20220;-49
2024/03/07 02:03:21;;;;;;;17.63;10.90;;;4.60;99.90;;;;;;4965756;28;20653;-50
2024/03/07 02:05:50;;;;;;;19.00;11.93;;;4.60;99.90;;;;;;4928457;28;20237;-51
2024/03/07 02:08:17;;;;;;;19.97;10.27;;;4.60;99.90;;;;;;4965965;28;20198;-53
2024/03/07 02:10:44;;;;;;;20.10;11.13;;;4.60;99.90;;;;;;4962961;28;20618;-55
2024/03/07 02:13:12;;;;;;;21.20;10.60;;;4.60;99.90;;;;;;4948977;28;20293;-51
2024/03/07 02:15:39;;;;;;;17.93;11.07;;;4.60;99.90;;;;;;4961164;28;20198;-52
2024/03/07 02:18:06;;;;;;;20.10;10.67;;;4.60;99.90;;;;;;4964261;28;20206;-50
2024/03/07 02:20:33;;;;;;;22.03;10.53;;;4.60;99.90;;;;;;4932662;28;20285;-53
2024/03/07 02:23:02;;;;;;;18.37;10.67;;;4.60;99.90;;;;;;4960476;28;20194;-51
2024/03/07 02:25:30;;;;;;;28.57;10.97;;;4.60;99.90;;;;;;4961170;28;20234;-53
2024/03/07 02:27:56;;;;;;;21.77;10.70;;;4.60;99.90;;;;;;4959222;28;20202;-48
2024/03/07 02:30:23;;;;;;;15.50;9.70;;;4.60;99.90;;;;;;4963483;28;20727;-53
2024/03/07 02:32:54;;;;;;;20.97;9.67;;;4.60;99.90;;;;;;4963376;28;20256;-49
2024/03/07 02:35:21;;;;;;;19.57;9.60;;;4.60;99.90;;;;;;4952806;28;20206;-55
2024/03/07 02:37:48;;;;;;;16.27;9.50;;;4.60;99.90;;;;;;4941200;28;20237;-49
2024/03/07 02:40:17;;;;;;;14.83;9.33;;;4.60;99.90;;;;;;4963563;28;20226;-52
2024/03/07 02:42:44;;;;;;;17.23;10.17;;;4.60;99.90;;;;;;4955038;28;21262;-48
2024/03/07 02:45:14;;;;;;;16.50;9.33;;;4.60;99.90;;;;;;4964692;28;20202;-48
2024/03/07 02:47:43;;;;;;;20.33;11.03;;;4.50;99.90;;;;;;4961279;28;20277;-50
2024/03/07 02:50:11;;;;;;;17.80;9.73;;;4.50;99.90;;;;;;4965437;28;20629;-50
2024/03/07 02:52:38;;;;;;;19.10;8.70;;;4.50;99.90;;;;;;4931261;28;20217;-48
2024/03/07 02:55:06;;;;;;;19.97;8.87;;;4.50;99.90;;;;;;4965089;28;20202;-46
2024/03/07 02:57:35;;;;;;;17.37;10.30;;;4.50;99.90;;;;;;4959889;28;20202;-53
2024/03/07 03:00:02;;;;;;;12.77;9.30;;;4.50;99.90;;;;;;4959086;28;20289;-51
2024/03/07 03:02:29;;;;;;;16.83;9.57;;;4.50;99.90;;;;;;4960426;28;20220;-54
2024/03/07 03:04:56;;;;;;;14.13;8.70;;;4.50;99.90;;;;;;4963455;28;20233;-49
2024/03/07 03:07:23;;;;;;;16.63;9.43;;;4.50;99.90;;;;;;4949459;28;20202;-53
2024/03/07 03:09:50;;;;;;;15.93;9.67;;;4.50;99.90;;;;;;4944879;28;20194;-47
2024/03/07 03:12:17;;;;;;;11.97;8.03;;;4.40;99.90;;;;;;4964258;28;20261;-52
2024/03/07 03:14:45;;;;;;;15.50;9.03;;;4.40;99.90;;;;;;4955708;28;20206;-49
2024/03/07 03:17:12;;;;;;;12.27;8.47;;;4.40;99.90;;;;;;4964917;28;20704;-50
2024/03/07 03:19:38;;;;;;;13.70;9.07;;;4.40;99.90;;;;;;4960865;28;20636;-47
2024/03/07 03:22:05;;;;;;;14.10;8.77;;;4.40;99.90;;;;;;4964507;28;20214;-48
2024/03/07 03:24:32;;;;;;;13.43;8.83;;;4.40;99.90;;;;;;4931572;28;20214;-56
2024/03/07 03:26:59;;;;;;;15.53;8.43;;;4.30;99.90;;;;;;4964503;28;20195;-50
2024/03/07 03:29:28;;;;;;;13.43;9.03;;;4.30;99.90;;;;;;4959625;28;20260;-54
2024/03/07 03:31:57;;;;;;;13.73;8.77;;;4.20;99.90;;;;;;4961149;28;20645;-49
2024/03/07 03:34:24;;;;;;;16.87;9.37;;;4.20;99.90;;;;;;4962220;28;20546;-54
2024/03/07 03:36:50;;;;;;;12.83;8.73;;;4.20;99.90;;;;;;4962342;28;20190;-52
2024/03/07 03:39:20;;;;;;;16.37;9.47;;;4.20;99.90;;;;;;4928421;28;20278;-54
2024/03/07 03:41:47;;;;;;;16.43;9.30;;;4.20;99.90;;;;;;4960875;28;20328;-49
2024/03/07 03:44:14;;;;;;;19.43;9.60;;;4.10;99.90;;;;;;4963905;28;20202;-52
2024/03/07 03:46:41;;;;;;;14.57;9.77;;;4.10;99.90;;;;;;4955000;28;20198;-51
2024/03/07 03:49:10;;;;;;;17.67;9.93;;;4.10;99.90;;;;;;4964013;28;20206;-50
2024/03/07 03:51:36;;;;;;;12.70;8.53;;;4.00;99.90;;;;;;4960022;28;20213;-48
2024/03/07 03:54:03;;;;;;;16.50;9.00;;;4.00;99.90;;;;;;4963762;28;20206;-48
2024/03/07 03:56:31;;;;;;;13.57;8.57;;;4.00;99.90;;;;;;4925091;28;20556;-52
2024/03/07 03:58:58;;;;;;;14.30;9.23;;;4.00;99.90;;;;;;4964080;28;20610;-50
2024/03/07 04:01:25;;;;;;;11.63;8.53;;;4.00;99.90;;;;;;4955837;28;20258;-49
2024/03/07 04:03:52;;;;;;;16.17;10.07;;;3.90;99.90;;;;;;4961567;28;20197;-46
2024/03/07 04:06:20;;;;;;;12.93;8.73;;;3.90;99.90;;;;;;4951733;28;20234;-51
2024/03/07 04:08:47;;;;;;;14.20;9.07;;;3.80;99.90;;;;;;4962125;28;20190;-46
2024/03/07 04:11:14;;;;;;;14.73;9.17;;;3.80;99.90;;;;;;4928218;28;20905;-53
2024/03/07 04:13:40;;;;;;;15.13;9.27;;;3.80;99.90;;;;;;4961047;28;20284;-49
2024/03/07 04:16:08;;;;;;;13.33;8.90;;;3.80;99.90;;;;;;4963772;28;20210;-46
2024/03/07 04:18:35;;;;;;;16.07;9.47;;;3.70;99.90;;;;;;4947070;28;20245;-49
2024/03/07 04:21:02;;;;;;;14.37;9.40;;;3.60;99.90;;;;;;4962423;28;20226;-51
2024/03/07 04:23:30;;;;;;;15.20;9.53;;;3.60;99.90;;;;;;4957356;28;20198;-51
2024/03/07 04:25:57;;;;;;;14.07;9.80;;;3.50;99.90;;;;;;4962212;28;20194;-49
2024/03/07 04:28:23;;;;;;;11.47;8.77;;;3.50;99.90;;;;;;4931360;28;20206;-49
2024/03/07 04:30:53;;;;;;;12.83;9.03;;;3.50;99.90;;;;;;4963148;28;20660;-51
2024/03/07 04:33:20;;;;;;;12.50;8.70;;;3.50;99.90;;;;;;4955384;28;20209;-52
2024/03/07 04:35:47;;;;;;;13.60;9.00;;;3.50;99.90;;;;;;4962001;28;20934;-53
2024/03/07 04:38:14;;;;;;;12.53;8.93;;;3.50;99.90;;;;;;4962810;28;20545;-52
2024/03/07 04:40:43;;;;;;;14.67;9.33;;;3.40;99.90;;;;;;4961106;28;20437;-49
2024/03/07 04:43:10;;;;;;;13.80;9.60;;;3.40;99.90;;;;;;4935669;28;20272;-51
2024/03/07 04:45:37;;;;;;;12.53;8.73;;;3.30;99.90;;;;;;4963950;28;20194;-53
2024/03/07 04:48:05;;;;;;;15.13;9.67;;;3.30;99.90;;;;;;4967293;28;20268;-48
2024/03/07 04:50:32;;;;;;;16.97;10.13;;;3.30;99.90;;;;;;4957371;28;20234;-52
2024/03/07 04:52:59;;;;;;;16.50;9.60;;;3.20;99.90;;;;;;4967129;28;20191;-52
2024/03/07 04:55:25;;;;;;;12.80;8.70;;;3.20;99.90;;;;;;4957401;28;20763;-51
2024/03/07 04:57:53;;;;;;;15.70;10.10;;;3.20;99.90;;;;;;4939365;28;20207;-52
2024/03/07 05:00:20;;;;;;;16.03;9.87;;;3.20;99.90;;;;;;4950925;28;20213;-51
2024/03/07 05:02:50;;;;;;;13.27;9.47;;;3.20;99.90;;;;;;4961698;28;20360;-52
2024/03/07 05:05:21;;;;;;;11.47;7.77;;;3.20;99.90;;;;;;4955317;28;20736;-52
2024/03/07 05:07:50;;;;;;;13.43;8.80;;;3.20;99.90;;;;;;4964468;28;20221;-49
2024/03/07 05:10:17;;;;;;;13.43;8.63;;;3.10;99.90;;;;;;4963118;28;20722;-50
2024/03/07 05:12:44;;;;;;;11.70;8.50;;;3.00;99.90;;;;;;4964032;28;20284;-48
2024/03/07 05:15:13;;;;;;;10.27;8.03;;;3.00;99.90;;;;;;4939041;28;20226;-51
2024/03/07 05:17:42;;;;;;;13.07;8.57;;;2.90;99.90;;;;;;4958014;28;21017;-50
2024/03/07 05:20:12;;;;;;;10.40;7.90;;;2.90;99.90;;;;;;4961121;28;20292;-49
2024/03/07 05:22:40;;;;;;;13.13;9.43;;;2.90;99.90;;;;;;4955713;28;20591;-51
2024/03/07 05:25:09;;;;;;;12.70;8.80;;;2.90;99.90;;;;;;4966439;28;20205;-53
2024/03/07 05:27:36;;;;;;;11.40;8.27;;;2.90;99.90;;;;;;4963030;28;20862;-51
2024/03/07 05:30:05;;;;;;;11.37;8.10;;;2.90;99.90;;;;;;4938259;28;20224;-50
2024/03/07 05:32:34;;;;;;;12.43;8.80;;;2.90;99.90;;;;;;4949249;28;20198;-52
2024/03/07 05:35:01;;;;;;;13.93;9.00;;;2.90;99.90;;;;;;4962774;28;20313;-52
2024/03/07 05:37:27;;;;;;;12.73;8.23;;;2.90;99.90;;;;;;4948492;28;20333;-52
2024/03/07 05:39:54;;;;;;;14.97;8.70;;;2.90;99.90;;;;;;4966444;28;20562;-49
2024/03/07 05:42:21;;;;;;;13.50;8.93;;;2.90;99.90;;;;;;4962630;28;20308;-50
2024/03/07 05:44:48;;;;;;;14.13;8.77;;;2.90;99.90;;;;;;4967567;28;20680;-49
2024/03/07 05:47:16;;;;;;;10.83;8.07;;;2.90;99.90;;;;;;4932750;28;20261;-52
2024/03/07 05:49:44;;;;;;;14.43;9.80;;;2.90;99.90;;;;;;4957716;28;20211;-49
2024/03/07 05:52:11;;;;;;;13.50;8.80;;;2.90;99.90;;;;;;4958037;28;20230;-50
2024/03/07 05:54:38;;;;;;;15.00;8.93;;;2.90;99.90;;;;;;4955819;28;20194;-49
2024/03/07 05:57:06;;;;;;;12.53;8.60;;;2.90;99.90;;;;;;4964887;28;20669;-52
2024/03/07 05:59:33;;;;;;;13.97;9.20;;;2.80;99.90;;;;;;4962425;28;20249;-51
2024/03/07 06:02:00;;;;;;;12.10;8.60;;;2.80;99.90;;;;;;4930169;28;20218;-50
2024/03/07 06:04:27;;;;;;;13.53;8.37;;;2.80;99.90;;;;;;4948468;28;20217;-51
2024/03/07 06:06:55;;;;;;;13.67;8.80;;;2.80;99.90;;;;;;4959057;28;20202;-50
2024/03/07 06:09:22;;;;;;;11.93;8.50;;;2.70;99.90;;;;;;4944999;28;20206;-51
2024/03/07 06:11:50;;;;;;;14.83;8.63;;;2.70;99.90;;;;;;4960917;28;20214;-49
2024/03/07 06:14:17;;;;;;;13.80;8.37;;;2.70;99.90;;;;;;4951788;28;20198;-50
2024/03/07 06:16:45;;;;;;;12.27;8.83;;;2.70;99.90;;;;;;4943716;28;20218;-54
2024/03/07 06:19:12;;;;;;;12.23;8.77;;;2.70;99.90;;;;;;4939773;28;20219;-49
2024/03/07 06:21:40;;;;;;;11.47;8.77;;;2.70;99.90;;;;;;4948874;28;20708;-51
2024/03/07 06:24:11;;;;;;;13.60;8.40;;;2.70;99.90;;;;;;4941351;28;20292;-47
2024/03/07 06:26:46;;;;;;;12.83;8.60;;;2.70;99.90;;;;;;4964983;28;20237;-49
2024/03/07 06:29:13;;;;;;;15.77;8.53;;;2.70;99.90;;;;;;4962955;28;20285;-54
2024/03/07 06:31:41;;;;;;;14.30;9.20;;;2.70;99.90;;;;;;4965732;28;20226;-52
2024/03/07 06:34:08;;;;;;;12.63;9.17;;;2.70;99.90;;;;;;4935994;28;20270;-47
2024/03/07 06:36:35;;;;;;;21.00;9.57;;;2.80;99.90;;;;;;4949745;28;20206;-48
2024/03/07 06:39:04;;;;;;;14.60;9.00;;;2.80;99.90;;;;;;4948105;28;20210;-50
2024/03/07 06:41:33;;;;;;;13.87;8.07;;;2.80;99.90;;;;;;4963084;28;20220;-47
2024/03/07 06:44:00;;;;;;;12.07;8.07;;;2.80;99.90;;;;;;4960410;28;20804;-49
2024/03/07 06:46:27;;;;;;;12.63;8.93;;;2.80;99.90;;;;;;4964933;28;20202;-49
2024/03/07 06:48:53;;;;;;;15.37;9.80;;;2.90;99.90;;;;;;4938195;28;20225;-54
2024/03/07 06:51:20;;;;;;;12.30;9.50;;;2.90;99.90;;;;;;4952149;28;20268;-52
2024/03/07 06:53:47;;;;;;;11.73;8.50;;;2.90;99.90;;;;;;4961256;28;20194;-53
2024/03/07 06:56:14;;;;;;;13.30;8.63;;;2.90;99.90;;;;;;4951429;28;20210;-48
2024/03/07 06:58:43;;;;;;;11.93;8.50;;;2.90;99.90;;;;;;4963202;28;20210;-54
2024/03/07 07:01:12;;;;;;;12.57;8.80;;;2.90;99.90;;;;;;4961958;28;20206;-48
2024/03/07 07:03:39;;;;;;;11.60;9.03;;;2.90;99.90;;;;;;4962563;28;20221;-54
2024/03/07 07:06:06;;;;;;;12.73;8.10;;;3.00;99.90;;;;;;4929909;28;20214;-51
2024/03/07 07:08:33;;;;;;;12.40;8.23;;;3.00;99.90;;;;;;4964668;28;20226;-52
2024/03/07 07:11:00;;;;;;;10.93;8.07;;;3.00;99.90;;;;;;4946437;28;20241;-47
2024/03/07 07:13:27;;;;;;;10.17;7.53;;;3.00;99.90;;;;;;4964702;28;20187;-51
2024/03/07 07:15:55;;;;;;;12.80;8.17;;;3.00;99.90;;;;;;4960574;28;20210;-53
2024/03/07 07:18:23;;;;;;;10.97;8.00;;;3.00;99.90;;;;;;4956256;28;20230;-47
2024/03/07 07:20:51;;;;;;;11.63;7.87;;;3.10;99.90;;;;;;4934728;28;20708;-55
2024/03/07 07:23:18;;;;;;;11.97;8.13;;;3.10;99.90;;;;;;4955150;28;20220;-50
2024/03/07 07:25:46;;;;;;;12.47;8.70;;;3.20;99.90;;;;;;4954715;28;20253;-55
2024/03/07 07:28:13;;;;;;;14.10;8.87;;;3.20;99.90;;;;;;4955785;28;20216;-48
2024/03/07 07:30:40;;;;;;;13.00;9.60;;;3.20;99.90;;;;;;4920464;28;20234;-49
2024/03/07 07:33:08;;;;;;;11.30;8.20;;;3.30;99.90;;;;;;4961934;28;20238;-47
2024/03/07 07:35:35;;;;;;;11.37;7.70;;;3.30;99.90;;;;;;4923456;28;21696;-54
2024/03/07 07:38:02;;;;;;;12.70;7.97;;;3.30;99.90;;;;;;4954496;28;20216;-50
2024/03/07 07:40:31;;;;;;;15.90;8.50;;;3.30;99.90;;;;;;4953084;28;20691;-52
2024/03/07 07:42:57;;;;;;;12.50;8.43;;;3.30;99.90;;;;;;4955093;28;20218;-49
2024/03/07 07:45:25;;;;;;;13.90;7.50;;;3.40;99.90;;;;;;4959578;28;20213;-52
2024/03/07 07:47:52;;;;;;;14.70;9.20;;;3.40;99.90;;;;;;4960617;28;20198;-49
2024/03/07 07:50:22;;;;;;;9.23;7.90;;;3.40;99.90;;;;;;4952999;28;20244;-54
2024/03/07 07:52:50;;;;;;;8.93;7.60;;;3.40;99.90;;;;;;4924787;28;22952;-50
2024/03/07 07:55:19;;;;;;;12.13;7.50;;;3.40;99.90;;;;;;4960767;28;20196;-56
2024/03/07 07:57:47;;;;;;;11.00;7.73;;;3.50;99.90;;;;;;4959902;28;20264;-47
2024/03/07 08:00:21;;;;;;;9.77;7.33;;;3.50;99.90;;;;;;4954911;28;20225;-54
2024/03/07 08:02:51;;;;;;;13.07;8.07;;;3.60;99.90;;;;;;4962470;28;20496;-47
2024/03/07 08:05:18;;;;;;;11.50;7.63;;;3.70;99.90;;;;;;4954967;28;20751;-54
2024/03/07 08:07:48;;;;;;;12.57;8.03;;;3.70;99.90;;;;;;4929403;28;20989;-48
2024/03/07 08:10:16;;;;;;;10.13;7.73;;;3.70;99.90;;;;;;4951994;28;20222;-52
2024/03/07 08:12:43;;;;;;;11.83;8.20;;;3.60;99.90;;;;;;4953465;28;20209;-47
2024/03/07 08:15:13;;;;;;;12.60;8.33;;;3.70;99.90;;;;;;4954318;28;20205;-54
2024/03/07 08:17:46;;;;;;;13.30;8.43;;;3.70;99.90;;;;;;4962769;28;20190;-47
2024/03/07 08:20:14;;;;;;;13.90;9.40;;;3.70;99.90;;;;;;4969272;28;20252;-55
2024/03/07 08:22:42;;;;;;;10.70;8.37;;;3.80;99.90;;;;;;4928876;28;20240;-48
2024/03/07 08:25:12;;;;;;;11.83;8.53;;;3.80;99.90;;;;;;4957809;28;20585;-49
2024/03/07 08:27:40;;;;;;;13.57;8.60;;;3.80;99.90;;;;;;4959034;28;20261;-47
2024/03/07 08:30:12;;;;;;;13.63;9.23;;;3.90;99.90;;;;;;4966187;28;20209;-47
2024/03/07 08:32:40;;;;;;;12.57;8.97;;;3.90;99.90;;;;;;4965940;28;20284;-49
2024/03/07 08:35:09;;;;;;;13.73;9.00;;;3.90;99.90;;;;;;4968277;28;20210;-50
2024/03/07 08:37:37;;;;;;;13.70;8.70;;;3.90;99.90;;;;;;4926039;28;20346;-47
2024/03/07 08:40:06;;;;;;;13.03;9.47;;;4.00;99.90;;;;;;4961199;28;20727;-54
2024/03/07 08:42:35;;;;;;;11.93;9.27;;;4.00;99.90;;;;;;4945186;28;20210;-51
2024/03/07 08:45:04;;;;;;;14.83;9.40;;;4.00;99.90;;;;;;4967132;28;20209;-51
2024/03/07 08:47:31;;;;;;;13.50;9.30;;;4.10;99.90;;;;;;4961383;28;20257;-48
2024/03/07 08:49:58;;;;;;;15.27;9.83;;;4.10;99.90;;;;;;4968314;28;20216;-51
2024/03/07 08:52:25;;;;;;;14.00;9.47;;;4.10;99.90;;;;;;4958531;28;20677;-53
2024/03/07 08:54:51;;;;;;;16.03;9.67;;;4.20;99.90;;;;;;4936860;28;20586;-47
2024/03/07 08:57:19;;;;;;;12.43;8.87;;;4.10;99.90;;;;;;4954045;28;20234;-54
2024/03/07 08:59:47;;;;;;;14.13;9.40;;;4.10;99.90;;;;;;4959537;28;20925;-49
2024/03/07 09:02:15;;;;;;;14.47;9.33;;;4.00;99.90;;;;;;4968334;28;20225;-54
2024/03/07 09:04:42;;;;;;;12.63;8.53;;;3.90;99.90;;;;;;4963114;28;20234;-48
2024/03/07 09:07:10;;;;;;;14.90;9.47;;;4.00;99.90;;;;;;4963143;28;20204;-55
2024/03/07 09:09:37;;;;;;;13.40;8.80;;;4.00;99.90;;;;;;4926163;28;20336;-52
2024/03/07 09:12:05;;;;;;;11.80;8.13;;;4.00;99.90;;;;;;4956689;28;20708;-48
2024/03/07 09:14:32;;;;;;;13.60;8.90;;;3.90;99.90;;;;;;4955241;28;20194;-52
2024/03/07 09:17:00;;;;;;;11.20;8.77;;;3.90;99.90;;;;;;4966015;28;20631;-50
2024/03/07 09:19:28;;;;;;;12.43;9.50;;;3.90;99.90;;;;;;4961385;28;20261;-56
2024/03/07 09:21:55;;;;;;;14.07;9.20;;;3.90;99.90;;;;;;4964894;28;20214;-49
2024/03/07 09:24:22;;;;;;;12.20;8.83;;;3.80;99.90;;;;;;4955969;28;20228;-55
2024/03/07 09:26:49;;;;;;;13.60;9.27;;;3.80;99.90;;;;;;4926179;28;20225;-51
2024/03/07 09:29:18;;;;;;;16.23;10.17;;;3.70;99.90;;;;;;4963571;28;20253;-55
2024/03/07 09:31:45;;;;;;;17.80;10.90;;;3.70;99.90;;;;;;4957934;28;20328;-50
2024/03/07 09:34:14;;;;;;;18.20;10.23;;;3.80;99.90;;;;;;4962945;28;20205;-55
2024/03/07 09:36:41;;;;;;;16.70;10.27;;;3.80;99.90;;;;;;4963614;28;20213;-48
2024/03/07 09:39:09;;;;;;;18.27;10.37;;;3.70;99.90;;;;;;4968280;28;20281;-49
2024/03/07 09:41:35;;;;;;;15.43;9.90;;;3.80;99.90;;;;;;4927918;28;20301;-49
2024/03/07 09:44:04;;;;;;;17.63;10.77;;;3.80;99.90;;;;;;4956013;28;20217;-53
2024/03/07 09:46:31;;;;;;;18.50;11.17;;;3.80;99.90;;;;;;4954057;28;20214;-51
2024/03/07 09:48:59;;;;;;;16.33;11.07;;;3.80;99.90;;;;;;4965667;28;20733;-53
2024/03/07 09:51:29;;;;;;;19.47;12.40;;;3.80;99.90;;;;;;4961368;28;20214;-54
2024/03/07 09:53:59;;;;;;;18.13;10.87;;;3.80;99.90;;;;;;4965295;28;20285;-50
2024/03/07 09:56:27;;;;;;;20.03;12.13;;;3.80;99.90;;;;;;4925905;28;20295;-55
2024/03/07 09:58:57;;;;;;;19.87;11.90;;;3.70;99.90;;;;;;4954446;28;20277;-51
2024/03/07 10:01:27;;;;;;;19.17;12.83;;;3.80;99.90;;;;;;4958275;28;20226;-56
2024/03/07 10:04:01;;;;;;;18.47;11.77;;;3.80;99.90;;;;;;4963325;28;20582;-53
2024/03/07 10:06:30;;;;;;;19.10;11.13;;;3.90;99.90;;;;;;4962387;28;20261;-54
2024/03/07 10:08:58;;;;;;;21.00;12.30;;;3.90;99.90;;;;;;4964481;28;20194;-52
2024/03/07 10:11:25;;;;;;;15.27;11.30;;;4.00;99.90;;;;;;4928897;28;20262;-55
2024/03/07 10:13:53;;;;;;;19.97;12.07;;;3.90;99.90;;;;;;4954261;28;20556;-47
2024/03/07 10:16:21;;;;;;;19.30;10.97;;;3.90;99.90;;;;;;4963418;28;20217;-55
2024/03/07 10:18:50;;;;;;;19.43;11.47;;;3.90;99.90;;;;;;4958644;28;20190;-49
2024/03/07 10:21:20;;;;;;;18.60;12.17;;;3.90;99.90;;;;;;4962594;28;20217;-55
2024/03/07 10:23:48;;;;;;;20.73;12.50;;;4.00;99.90;;;;;;4964909;28;20280;-49
2024/03/07 10:26:16;;;;;;;17.47;11.23;;;4.10;99.90;;;;;;4955662;28;20213;-57
2024/03/07 10:28:44;;;;;;;21.63;12.13;;;4.10;99.90;;;;;;4925088;28;20224;-50
2024/03/07 10:31:15;;;;;;;22.63;12.00;;;4.10;99.90;;;;;;4964817;28;20241;-52
2024/03/07 10:33:42;;;;;;;20.23;11.73;;;4.20;99.90;;;;;;4954364;28;20210;-50
2024/03/07 10:36:13;;;;;;;21.90;14.10;;;4.20;99.90;;;;;;4961004;28;20202;-51
2024/03/07 10:38:40;;;;;;;19.87;12.23;;;4.30;99.90;;;;;;4960084;28;20257;-49
2024/03/07 10:41:11;;;;;;;19.60;12.30;;;4.30;99.90;;;;;;4965886;28;20218;-51
2024/03/07 10:43:41;;;;;;;20.17;11.97;;;4.40;99.90;;;;;;4925284;28;20220;-48
2024/03/07 10:46:11;;;;;;;18.83;11.97;;;4.50;99.90;;;;;;4952172;28;20225;-51
2024/03/07 10:48:40;;;;;;;18.87;11.50;;;4.60;99.90;;;;;;4964116;28;20253;-49
2024/03/07 10:51:14;;;;;;;19.23;12.27;;;4.70;99.90;;;;;;4956615;28;20217;-53
2024/03/07 10:54:00;;;;;;;18.93;11.00;;;4.80;99.90;;;;;;4962202;28;20195;-46
2024/03/07 10:56:36;;;;;;;18.37;11.27;;;4.90;99.90;;;;;;4961269;28;20202;-53
2024/03/07 10:59:14;;;;;;;17.87;11.80;;;5.00;99.90;;;;;;4936291;28;21003;-48
2024/03/07 11:01:50;;;;;;;15.70;10.90;;;5.00;99.90;;;;;;4952603;28;20287;-48
2024/03/07 11:04:18;;;;;;;19.47;11.73;;;5.10;99.90;;;;;;4958402;28;20224;-55
2024/03/07 11:06:45;;;;;;;20.93;11.27;;;5.10;99.90;;;;;;4957639;28;20206;-49
2024/03/07 11:09:13;;;;;;;20.00;11.33;;;5.20;99.90;;;;;;4966839;28;20190;-53
2024/03/07 11:11:43;;;;;;;19.57;12.13;;;5.30;99.90;;;;;;4960805;28;20213;-52
2024/03/07 11:14:12;;;;;;;21.10;12.37;;;5.30;99.90;;;;;;4924030;28;20197;-50
2024/03/07 11:16:40;;;;;;;19.63;12.53;;;5.40;99.90;;;;;;4953990;28;20205;-49
2024/03/07 11:19:27;;;;;;;16.50;11.40;;;5.40;99.90;;;;;;4946942;28;20197;-47
2024/03/07 11:21:55;;;;;;;18.13;11.53;;;5.50;99.90;;;;;;4952542;28;20630;-54
2024/03/07 11:24:28;;;;;;;22.27;12.50;;;5.50;99.90;;;;;;4960969;28;20218;-49
2024/03/07 11:26:58;;;;;;;19.03;12.47;;;5.50;99.90;;;;;;4964176;28;20198;-54
2024/03/07 11:29:42;;;;;;;19.93;12.23;;;5.50;99.90;;;;;;4934700;28;20222;-50
2024/03/07 11:32:11;;;;;;;21.63;11.67;;;5.50;99.90;;;;;;4951597;28;20933;-50
2024/03/07 11:34:41;;;;;;;19.10;11.67;;;5.60;99.90;;;;;;4947367;28;20220;-50
2024/03/07 11:37:17;;;;;;;21.43;12.93;;;5.60;99.90;;;;;;4953626;28;20915;-51
2024/03/07 11:39:46;;;;;;;21.63;13.00;;;5.60;99.90;;;;;;4963973;28;20285;-52
2024/03/07 11:42:28;;;;;;;17.80;11.47;;;5.70;99.90;;;;;;4959613;28;20226;-48
2024/03/07 11:44:56;;;;;;;20.03;12.73;;;5.80;99.90;;;;;;4932622;28;20217;-55
2024/03/07 11:47:25;;;;;;;21.87;12.70;;;5.70;99.90;;;;;;4952952;28;20237;-54
2024/03/07 11:49:52;;;;;;;19.93;12.30;;;5.80;99.90;;;;;;4947083;28;20210;-54
2024/03/07 11:52:20;;;;;;;18.80;12.20;;;5.90;99.90;;;;;;4955141;28;20222;-51
2024/03/07 11:54:47;;;;;;;16.40;11.93;;;5.90;99.90;;;;;;4962240;28;20189;-54
2024/03/07 11:57:16;;;;;;;19.17;12.37;;;5.90;99.90;;;;;;4961776;28;20868;-49
2024/03/07 11:59:45;;;;;;;20.13;12.70;;;5.90;99.90;;;;;;4936665;28;20285;-48
2024/03/07 12:02:15;;;;;;;16.93;12.17;;;5.90;99.90;;;;;;4951221;28;20245;-47
2024/03/07 12:04:42;;;;;;;20.43;12.07;;;6.00;99.90;;;;;;4964316;28;20627;-50
2024/03/07 12:07:10;;;;;;;21.03;13.10;;;6.10;99.90;;;;;;4938668;28;20422;-49
2024/03/07 12:09:38;;;;;;;20.53;12.80;;;6.10;99.90;;;;;;4964190;28;20208;-48
2024/03/07 12:12:06;;;;;;;21.07;13.47;;;6.10;99.90;;;;;;4960092;28;20272;-53
2024/03/07 12:14:34;;;;;;;17.73;11.23;;;6.10;99.90;;;;;;4964106;28;20201;-49
2024/03/07 12:17:03;;;;;;;19.03;12.70;;;6.10;99.90;;;;;;4931571;28;20205;-55
2024/03/07 12:19:33;;;;;;;19.53;13.10;;;6.20;99.90;;;;;;4953662;28;20216;-50
2024/03/07 12:22:02;;;;;;;19.20;12.73;;;6.20;99.90;;;;;;4946676;28;20763;-56
2024/03/07 12:24:30;;;;;;;20.83;13.13;;;6.20;99.90;;;;;;4957963;28;20217;-53
2024/03/07 12:27:07;;;;;;;18.73;12.67;;;6.30;99.90;;;;;;4959137;28;20202;-55
2024/03/07 12:29:34;;;;;;;22.20;13.60;;;6.20;99.90;;;;;;4963442;28;20200;-51
2024/03/07 12:32:02;;;;;;;20.17;13.10;;;6.20;99.90;;;;;;4929421;28;20226;-55
2024/03/07 12:34:30;;;;;;;25.63;14.33;;;6.30;99.90;;;;;;4953838;28;20198;-52
2024/03/07 12:36:57;;;;;;;21.57;13.43;;;6.30;99.90;;;;;;4947139;28;20229;-55
2024/03/07 12:39:32;;;;;;;19.33;13.17;;;6.40;99.90;;;;;;4955235;28;20819;-48
2024/03/07 12:42:00;;;;;;;20.13;13.73;;;6.40;99.90;;;;;;4962497;28;20320;-55
2024/03/07 12:44:27;;;;;;;18.10;12.93;;;6.40;99.90;;;;;;4959667;28;20709;-50
2024/03/07 12:46:55;;;;;;;19.73;12.50;;;6.40;99.90;;;;;;4947854;28;20221;-56